createdAt,value
2023-05-14T00:02:34.305Z,11.00
2023-05-14T00:07:37.308Z,10.60
2023-05-14T00:12:54.257Z,11.80
2023-05-14T00:18:21.434Z,10.20
2023-05-14T00:24:11.092Z,11.10
2023-05-14T00:29:32.438Z,11.20
2023-05-14T00:34:48.193Z,11.60
2023-05-14T00:39:55.435Z,11.00
2023-05-14T00:45:03.760Z,11.60
2023-05-14T00:50:21.561Z,12.30
2023-05-14T00:55:33.053Z,12.00
2023-05-14T01:00:36.256Z,10.80
2023-05-14T01:06:00.912Z,10.80
2023-05-14T01:11:52.835Z,11.90
2023-05-14T01:17:11.826Z,11.60
2023-05-14T01:22:19.764Z,12.10
2023-05-14T01:27:23.488Z,11.40
2023-05-14T01:32:35.841Z,10.80
2023-05-14T01:37:49.705Z,11.30
2023-05-14T01:43:12.407Z,12.10
2023-05-14T01:48:22.753Z,11.60
2023-05-14T01:53:25.275Z,10.20
2023-05-14T01:58:38.021Z,11.00
2023-05-14T02:03:40.295Z,11.20
2023-05-14T02:08:51.770Z,10.40
2023-05-14T02:13:54.511Z,11.30
2023-05-14T02:18:59.844Z,12.30
2023-05-14T02:24:02.293Z,11.60
2023-05-14T02:29:08.559Z,12.00
2023-05-14T02:34:42.775Z,11.60
2023-05-14T02:40:37.933Z,11.70
2023-05-14T02:46:00.502Z,12.20
2023-05-14T02:51:26.863Z,10.90
2023-05-14T02:56:44.694Z,11.90
2023-05-14T03:02:19.584Z,11.80
2023-05-14T03:07:39.291Z,11.50
2023-05-14T03:13:20.860Z,11.70
2023-05-14T03:18:41.386Z,12.00
2023-05-14T03:23:53.769Z,11.00
2023-05-14T03:28:58.622Z,12.00
2023-05-14T03:34:01.376Z,11.90
2023-05-14T03:39:23.865Z,12.40
2023-05-14T03:44:54.676Z,12.70
2023-05-14T03:50:11.920Z,11.80
2023-05-14T03:55:26.400Z,12.70
2023-05-14T04:00:57.716Z,11.50
2023-05-14T04:06:05.197Z,12.60
2023-05-14T04:11:38.995Z,11.70
2023-05-14T04:17:20.744Z,12.20
2023-05-14T04:23:07.854Z,12.20
2023-05-14T04:28:55.616Z,12.10
2023-05-14T04:34:32.260Z,12.00
2023-05-14T04:39:47.219Z,11.80
2023-05-14T04:45:08.645Z,12.40
2023-05-14T04:50:46.972Z,11.20
2023-05-14T04:55:49.213Z,12.30
2023-05-14T05:01:03.685Z,12.90
2023-05-14T05:06:07.842Z,13.80
2023-05-14T05:11:13.292Z,13.60
2023-05-14T05:16:15.800Z,13.50
2023-05-14T05:21:18.726Z,12.90
2023-05-14T05:26:26.838Z,13.90
2023-05-14T05:31:39.456Z,13.20
2023-05-14T05:36:41.381Z,12.40
2023-05-14T05:41:49.328Z,10.80
2023-05-14T05:46:58.165Z,11.90
2023-05-14T05:52:06.483Z,13.40
2023-05-14T05:57:18.848Z,16.20
2023-05-14T06:02:21.227Z,16.40
2023-05-14T06:07:25.828Z,17.80
2023-05-14T06:12:40.679Z,15.10
2023-05-14T06:17:43.034Z,15.10
2023-05-14T06:22:48.172Z,13.60
2023-05-14T06:27:50.474Z,12.50
2023-05-14T06:32:53.235Z,13.20
2023-05-14T06:37:55.364Z,11.80
2023-05-14T06:42:58.264Z,11.80
2023-05-14T06:48:10.660Z,11.90
2023-05-14T06:53:16.814Z,10.40
2023-05-14T06:58:34.506Z,11.90
2023-05-14T07:03:36.731Z,11.70
2023-05-14T07:08:38.854Z,9.70
2023-05-14T07:13:41.928Z,9.60
2023-05-14T07:18:45.578Z,9.70
2023-05-14T07:23:47.977Z,9.00
2023-05-14T07:28:50.533Z,10.30
2023-05-14T07:34:11.820Z,9.80
2023-05-14T07:39:13.909Z,7.20
2023-05-14T07:44:16.422Z,7.10
2023-05-14T07:49:18.830Z,6.90
2023-05-14T07:54:26.744Z,5.20
2023-05-14T07:59:48.781Z,5.10
2023-05-14T08:04:52.239Z,4.80
2023-05-14T08:09:54.195Z,4.50
2023-05-14T08:14:57.057Z,4.30
2023-05-14T08:19:59.063Z,4.50
2023-05-14T08:25:03.582Z,4.40
2023-05-14T08:30:07.518Z,4.90
2023-05-14T08:35:19.468Z,4.90
2023-05-14T08:40:22.224Z,5.30
2023-05-14T08:45:34.519Z,5.20
2023-05-14T08:50:49.278Z,5.30
2023-05-14T08:55:54.850Z,5.80
2023-05-14T09:00:57.509Z,5.80
2023-05-14T09:06:04.948Z,5.70
2023-05-14T09:11:07.200Z,5.60
2023-05-14T09:16:10.060Z,5.30
2023-05-14T09:21:16.127Z,5.80
2023-05-14T09:26:26.252Z,11.00
2023-05-14T09:31:33.269Z,6.10
2023-05-14T09:36:35.996Z,5.60
2023-05-14T09:41:43.193Z,5.70
2023-05-14T09:46:50.875Z,6.30
2023-05-14T09:51:58.224Z,5.70
2023-05-14T09:57:01.032Z,5.60
2023-05-14T10:02:22.278Z,6.80
2023-05-14T10:07:58.336Z,5.10
2023-05-14T10:13:05.691Z,4.60
2023-05-14T10:18:12.574Z,3.90
2023-05-14T10:23:17.977Z,3.90
2023-05-14T10:28:29.910Z,3.70
2023-05-14T10:33:47.191Z,2.90
2023-05-14T10:38:57.322Z,2.80
2023-05-14T10:43:59.718Z,3.30
2023-05-14T10:49:03.150Z,2.60
2023-05-14T10:54:08.931Z,2.90
2023-05-14T10:59:12.320Z,3.10
2023-05-14T11:04:24.188Z,2.80
2023-05-14T11:09:29.356Z,3.00
2023-05-14T11:14:31.863Z,3.40
2023-05-14T11:19:34.412Z,3.00
2023-05-14T11:24:36.551Z,9.40
2023-05-14T11:29:48.900Z,3.50
2023-05-14T11:34:54.117Z,3.20
2023-05-14T11:40:00.112Z,3.30
2023-05-14T11:45:02.847Z,3.50
2023-05-14T11:50:09.762Z,3.50
2023-05-14T11:55:18.489Z,3.30
2023-05-14T12:00:25.227Z,7.40
2023-05-14T12:05:30.040Z,2.70
2023-05-14T12:10:42.521Z,2.60
2023-05-14T12:15:47.110Z,3.00
2023-05-14T12:20:51.255Z,3.00
2023-05-14T12:25:53.266Z,8.10
2023-05-14T12:30:57.606Z,3.30
2023-05-14T12:41:09.044Z,3.00
2023-05-14T12:46:11.071Z,2.40
2023-05-14T12:51:13.904Z,2.70
2023-05-14T12:56:16.540Z,2.50
2023-05-14T13:01:41.195Z,2.70
2023-05-14T13:06:53.400Z,3.50
2023-05-14T13:12:03.589Z,3.00
2023-05-14T13:17:08.747Z,2.90
2023-05-14T13:22:14.476Z,3.00
2023-05-14T13:27:16.559Z,3.20
2023-05-14T13:32:19.046Z,3.20
2023-05-14T13:37:21.153Z,2.50
2023-05-14T13:42:23.773Z,2.80
2023-05-14T13:47:28.968Z,2.60
2023-05-14T13:52:34.624Z,2.60
2023-05-14T13:57:37.637Z,2.40
2023-05-14T14:02:42.611Z,2.50
2023-05-14T14:07:50.465Z,3.20
2023-05-14T14:12:55.821Z,2.50
2023-05-14T14:17:57.791Z,2.00
2023-05-14T14:23:00.189Z,2.00
2023-05-14T14:28:05.492Z,1.80
2023-05-14T14:33:07.834Z,2.10
2023-05-14T14:38:10.410Z,1.70
2023-05-14T14:43:21.741Z,1.60
2023-05-14T14:48:37.451Z,1.60
2023-05-14T14:53:40.801Z,1.40
2023-05-14T14:58:42.952Z,1.40
2023-05-14T15:03:45.944Z,1.60
2023-05-14T15:08:48.364Z,2.40
2023-05-14T15:13:50.761Z,1.70
2023-05-14T15:18:58.855Z,1.90
2023-05-14T15:24:04.581Z,1.80
2023-05-14T15:29:06.543Z,2.00
2023-05-14T15:34:11.576Z,1.90
2023-05-14T15:39:13.976Z,2.10
2023-05-14T15:44:19.532Z,2.20
2023-05-14T15:49:23.903Z,2.30
2023-05-14T15:54:27.719Z,2.50
2023-05-14T15:59:30.695Z,2.60
2023-05-14T16:04:32.646Z,2.70
2023-05-14T16:09:35.155Z,2.60
2023-05-14T16:14:38.307Z,2.10
2023-05-14T16:19:41.277Z,2.20
2023-05-14T16:24:44.887Z,1.90
2023-05-14T16:29:53.084Z,1.70
2023-05-14T16:34:58.222Z,1.70
2023-05-14T16:40:00.301Z,2.20
2023-05-14T16:45:02.892Z,2.10
2023-05-14T16:50:06.158Z,2.10
2023-05-14T16:55:09.300Z,2.30
2023-05-14T17:00:12.184Z,1.90
2023-05-14T17:05:15.008Z,2.30
2023-05-14T17:10:26.812Z,2.50
2023-05-14T17:15:29.573Z,3.70
2023-05-14T17:20:31.606Z,7.10
2023-05-14T17:25:33.847Z,3.00
2023-05-14T17:30:35.814Z,2.60
2023-05-14T17:35:38.057Z,2.80
2023-05-14T17:40:40.918Z,2.50
2023-05-14T17:45:53.884Z,2.80
2023-05-14T17:51:00.016Z,6.80
2023-05-14T17:56:02.914Z,5.70
2023-05-14T18:01:06.183Z,4.30
2023-05-14T18:06:08.751Z,4.20
2023-05-14T18:11:11.027Z,4.60
2023-05-14T18:16:13.494Z,4.10
2023-05-14T18:21:16.078Z,3.60
2023-05-14T18:26:22.241Z,4.60
2023-05-14T18:31:27.975Z,5.30
2023-05-14T18:36:30.629Z,4.20
2023-05-14T18:41:32.797Z,4.50
2023-05-14T18:46:34.812Z,4.50
2023-05-14T18:51:36.803Z,4.30
2023-05-14T18:56:41.798Z,5.30
2023-05-14T19:01:44.385Z,5.10
2023-05-14T19:06:47.072Z,5.20
2023-05-14T19:11:49.235Z,5.50
2023-05-14T19:17:02.690Z,5.70
2023-05-14T19:22:05.309Z,5.80
2023-05-14T19:27:12.936Z,6.10
2023-05-14T19:32:17.958Z,5.40
2023-05-14T19:37:20.414Z,5.70
2023-05-14T19:42:24.937Z,9.40
2023-05-14T19:47:33.388Z,7.40
2023-05-14T19:52:42.806Z,7.30
2023-05-14T19:57:50.912Z,7.50
2023-05-14T20:03:00.002Z,10.30
2023-05-14T20:08:06.663Z,10.40
2023-05-14T20:13:08.733Z,15.80
2023-05-14T20:18:11.245Z,14.00
2023-05-14T20:23:13.112Z,10.80
2023-05-14T20:28:16.324Z,9.90
2023-05-14T20:33:18.412Z,8.70
2023-05-14T20:38:21.848Z,9.20
2023-05-14T20:43:24.167Z,8.40
2023-05-14T20:48:26.455Z,8.80
2023-05-14T20:53:28.844Z,10.20
2023-05-14T20:58:31.318Z,10.50
2023-05-14T21:03:34.700Z,8.80
2023-05-14T21:09:04.040Z,10.70
2023-05-14T21:14:16.998Z,11.10
2023-05-14T21:19:19.437Z,11.50
2023-05-14T21:24:24.149Z,11.20
2023-05-14T21:29:26.476Z,10.60
2023-05-14T21:34:32.095Z,11.90
2023-05-14T21:39:40.049Z,12.50
2023-05-14T21:44:43.070Z,13.30
2023-05-14T21:49:53.906Z,14.80
2023-05-14T21:54:56.196Z,15.60
2023-05-14T22:00:01.431Z,16.60
2023-05-14T22:05:09.645Z,15.80
2023-05-14T22:10:13.584Z,15.60
2023-05-14T22:15:16.107Z,17.50
2023-05-14T22:20:25.775Z,17.50
2023-05-14T22:25:31.229Z,16.80
2023-05-14T22:30:33.461Z,16.10
2023-05-14T22:35:47.777Z,16.70
2023-05-14T22:41:03.340Z,17.60
2023-05-14T22:46:06.242Z,17.30
2023-05-14T22:51:18.080Z,15.50
2023-05-14T22:56:38.271Z,15.00
2023-05-14T23:01:48.720Z,16.30
2023-05-14T23:06:51.028Z,15.60
2023-05-14T23:11:56.690Z,14.50
2023-05-14T23:17:08.890Z,13.70
2023-05-14T23:22:14.540Z,15.20
2023-05-14T23:27:37.156Z,16.50
2023-05-14T23:32:39.777Z,16.80
2023-05-14T23:37:47.410Z,17.20
2023-05-14T23:42:57.360Z,17.50
2023-05-14T23:48:23.177Z,18.60
2023-05-14T23:53:26.159Z,16.90
2023-05-14T23:58:31.255Z,17.70
